WetterOnline ( https://www.wetteronline.at )

Wetter aktuell Straubing

Aktuelles Wetter: Straubing (360m)

6-stündlich | Neueste Meldungen
Ortszeit Temperatur Wetter
Fr, 14.06. 8:00 11.7° C bedeckt
Fr, 14.06. 2:00 8.6° C bedeckt
Do, 13.06. 20:00 17.3° C leicht bewölkt
Do, 13.06. 14:00 18.1° C fast wolkenlos
Do, 13.06. 8:00 12.8° C leicht bewölkt
Do, 13.06. 2:00 10.7° C bedeckt
Mi, 12.06. 20:00 15.9° C bedeckt
Mi, 12.06. 14:00 16.8° C leicht bewölkt
Ortszeit Temperatur Wetter
Fr, 14.06. 10:30 15.8° C bedeckt
Fr, 14.06. 10:20 15.8° C bedeckt
Fr, 14.06. 10:10 15.3° C bedeckt
Fr, 14.06. 10:00 14.9° C bedeckt
Fr, 14.06. 9:50 14.9° C bedeckt
Fr, 14.06. 9:40 14.7° C bedeckt
Fr, 14.06. 9:30 13.9° C bedeckt
Fr, 14.06. 9:00 13.7° C bedeckt
Fr, 14.06. 8:30 12.1° C bedeckt
Fr, 14.06. 8:00 11.7° C bedeckt
Fr, 14.06. 7:30 11.4° C bedeckt
Ortszeit Relative Feuchte Sichtweite
Fr, 14.06. 8:00 89% 40 km
Fr, 14.06. 2:00 96% 28 km
Do, 13.06. 20:00 57% >70 km
Do, 13.06. 14:00 56% 60 km
Do, 13.06. 8:00 82% 45 km
Do, 13.06. 2:00 97% 21 km
Mi, 12.06. 20:00 66% >70 km
Mi, 12.06. 14:00 55% 50 km
Ortszeit Relative Feuchte Sichtweite
Fr, 14.06. 10:30 73% 50 km
Fr, 14.06. 10:20 73% -
Fr, 14.06. 10:10 73% -
Fr, 14.06. 10:00 76% 50 km
Fr, 14.06. 9:50 76% -
Fr, 14.06. 9:40 74% -
Fr, 14.06. 9:30 78% 45 km
Fr, 14.06. 9:00 83% 40 km
Fr, 14.06. 8:30 85% 45 km
Fr, 14.06. 8:00 89% 40 km
Fr, 14.06. 7:30 88% 45 km
Ortszeit Niederschlagsmenge Niederschlagsart
Fr, 14.06. 8:00 0.0 l/m2 in 12 Std. -
Fr, 14.06. 2:00 0.0 l/m2 in 6 Std. -
Do, 13.06. 20:00 1 l/m2 in 12 Std. Regen
Do, 13.06. 14:00 0.7 l/m2 in 6 Std. Regen
Do, 13.06. 8:00 0.1 l/m2 in 12 Std. Regen
Do, 13.06. 2:00 0.0 l/m2 in 6 Std. -
Mi, 12.06. 20:00 3 l/m2 in 12 Std. -
Mi, 12.06. 14:00 3 l/m2 in 6 Std. Regen
Ortszeit Niederschlagsmenge Niederschlagsart
Fr, 14.06. 10:30 0.0 l/m2 in 30 Min -
Fr, 14.06. 10:20 keine Meldung -
Fr, 14.06. 10:10 keine Meldung -
Fr, 14.06. 10:00 0.0 l/m2 in 1 Std. -
Fr, 14.06. 9:50 keine Meldung -
Fr, 14.06. 9:40 keine Meldung -
Fr, 14.06. 9:30 0.0 l/m2 in 30 Min -
Fr, 14.06. 9:00 0.0 l/m2 in 1 Std. -
Fr, 14.06. 8:30 0.0 l/m2 in 30 Min -
Fr, 14.06. 8:00 0.0 l/m2 in 1 Std. -
Fr, 14.06. 7:30 0.0 l/m2 in 30 Min -
Ortszeit Stärke Spitze Richtung
km/h Bft. km/h Grad Sektor
Fr, 14.06. 8:00 13 3 20 110° O
Fr, 14.06. 2:00 4 1 11 120° SO
Do, 13.06. 20:00 4 1 29 170° S
Do, 13.06. 14:00 7 2 32 200° S
Do, 13.06. 8:00 7 2 11 360° N
Do, 13.06. 2:00 0 0 7 - -
Mi, 12.06. 20:00 2 1 20 320° NW
Mi, 12.06. 14:00 9 2 22 150° SO
Ortszeit Stärke Spitze Richtung
km/h Bft. km/h Grad Sektor
Fr, 14.06. 10:30 11 2 22 110° O
Fr, 14.06. 10:20 11 2 - 110° O
Fr, 14.06. 10:10 13 3 - 110° O
Fr, 14.06. 10:00 15 3 22 110° O
Fr, 14.06. 9:50 15 3 - 110° O
Fr, 14.06. 9:40 15 3 - 110° O
Fr, 14.06. 9:30 15 3 20 100° O
Fr, 14.06. 9:00 11 2 22 110° O
Fr, 14.06. 8:30 13 3 20 100° O
Fr, 14.06. 8:00 13 3 20 110° O
Fr, 14.06. 7:30 11 2 18 130° SO
Ortszeit Untergrenze Bedeckung Gattung
total tief tief mittel hoch
Fr, 14.06. 8:00 4500 m 8/8 8/8 - - -
Fr, 14.06. 2:00 7500 m 8/8 - - - -
Do, 13.06. 20:00 2400 m 4/8 - - - -
Do, 13.06. 14:00 1170 m 1/8 - - - -
Do, 13.06. 8:00 2700 m 2/8 - - - -
Do, 13.06. 2:00 3300 m 8/8 8/8 - - -
Mi, 12.06. 20:00 2700 m 8/8 - - - -
Mi, 12.06. 14:00 1170 m 4/8 - - - -
Ortszeit Bedeckungsgrad in Achtel und Wolkenuntergrenze
Fr, 14.06. 10:30 8(3300m)
Fr, 14.06. 10:20 8
Fr, 14.06. 10:10 8
Fr, 14.06. 10:00 8(3900m)
Fr, 14.06. 9:50 8
Fr, 14.06. 9:40 8
Fr, 14.06. 9:30 8(3900m)
Fr, 14.06. 9:00 8(4200m)
Fr, 14.06. 8:30 8(4500m)
Fr, 14.06. 8:00 8(4500m)
Fr, 14.06. 7:30 8(4800m)
Ortszeit Luftdruck NN (hPa) Tendenz (hPa in 3 Std.)
Fr, 14.06. 8:00 1015 - 0,3
Fr, 14.06. 2:00 1017 - 0,5
Do, 13.06. 20:00 1017 - 0,1
Do, 13.06. 14:00 1017 - 1,1
Do, 13.06. 8:00 1018 + 0,7
Do, 13.06. 2:00 1018 + 0,1
Mi, 12.06. 20:00 1017 - 0,7
Mi, 12.06. 14:00 1018 - 0,7
Ortszeit Luftdruck NN (hPa) Tendenz (hPa in 3 Std.)
Fr, 14.06. 10:30 1015 - 0,1
Fr, 14.06. 10:20 1015 keine Meldung
Fr, 14.06. 10:10 1015 keine Meldung
Fr, 14.06. 10:00 1014 - 0,2
Fr, 14.06. 9:50 1014 keine Meldung
Fr, 14.06. 9:40 1015 keine Meldung
Fr, 14.06. 9:30 1015 - 0,4
Fr, 14.06. 9:00 1015 - 0,6
Fr, 14.06. 8:30 1015 - 0,6
Fr, 14.06. 8:00 1015 - 0,3
Fr, 14.06. 7:30 1015 - 0,4
Ortszeit Schneehöhe (cm)
Fr, 14.06. 8:00 0
Fr, 14.06. 2:00 0
Do, 13.06. 20:00 0
Do, 13.06. 14:00 0
Do, 13.06. 8:00 0
Do, 13.06. 2:00 0
Mi, 12.06. 20:00 0
Mi, 12.06. 14:00 0
Ortszeit Schneehöhe (cm)
Fr, 14.06. 10:30 0
Fr, 14.06. 10:20 0
Fr, 14.06. 10:10 -
Fr, 14.06. 10:00 0
Fr, 14.06. 9:50 0
Fr, 14.06. 9:40 -
Fr, 14.06. 9:30 0
Fr, 14.06. 9:00 0
Fr, 14.06. 8:30 0
Fr, 14.06. 8:00 0
Fr, 14.06. 7:30 0
Link zu dieser Seite / Seite empfehlen

Das Wetter in ...